sensor_id;sensor_type;location;lat;lon;timestamp;P1;durP1;ratioP1;P2;durP2;ratioP2
56523;SDS011;42422;47.540;18.712;2024-02-16T00:03:22;24.83;;;10.80;;
56523;SDS011;42422;47.540;18.712;2024-02-16T00:08:13;28.15;;;11.38;;
56523;SDS011;42422;47.540;18.712;2024-02-16T00:13:03;20.38;;;10.32;;
56523;SDS011;42422;47.540;18.712;2024-02-16T00:17:54;21.30;;;10.50;;
56523;SDS011;42422;47.540;18.712;2024-02-16T00:22:47;22.48;;;10.40;;
56523;SDS011;42422;47.540;18.712;2024-02-16T00:27:37;21.83;;;10.15;;
56523;SDS011;42422;47.540;18.712;2024-02-16T00:32:28;24.75;;;9.95;;
56523;SDS011;42422;47.540;18.712;2024-02-16T00:34:55;25.95;;;10.60;;
56523;SDS011;42422;47.540;18.712;2024-02-16T00:39:46;20.58;;;10.32;;
56523;SDS011;42422;47.540;18.712;2024-02-16T00:44:36;21.55;;;10.07;;
56523;SDS011;42422;47.540;18.712;2024-02-16T00:49:27;25.10;;;9.62;;
56523;SDS011;42422;47.540;18.712;2024-02-16T00:54:17;23.67;;;10.40;;
56523;SDS011;42422;47.540;18.712;2024-02-16T00:59:07;22.90;;;10.46;;
56523;SDS011;42422;47.540;18.712;2024-02-16T01:01:34;26.92;;;12.30;;
56523;SDS011;42422;47.540;18.712;2024-02-16T01:06:25;23.55;;;11.98;;
56523;SDS011;42422;47.540;18.712;2024-02-16T01:11:15;21.02;;;10.00;;
56523;SDS011;42422;47.540;18.712;2024-02-16T01:16:06;22.88;;;11.10;;
56523;SDS011;42422;47.540;18.712;2024-02-16T01:20:57;21.20;;;10.02;;
56523;SDS011;42422;47.540;18.712;2024-02-16T01:25:48;18.02;;;8.63;;
56523;SDS011;42422;47.540;18.712;2024-02-16T01:30:39;24.88;;;11.32;;
56523;SDS011;42422;47.540;18.712;2024-02-16T01:35:30;21.02;;;10.40;;
56523;SDS011;42422;47.540;18.712;2024-02-16T01:40:20;25.20;;;9.30;;
56523;SDS011;42422;47.540;18.712;2024-02-16T01:45:10;25.58;;;9.82;;
56523;SDS011;42422;47.540;18.712;2024-02-16T01:47:39;22.63;;;11.30;;
56523;SDS011;42422;47.540;18.712;2024-02-16T01:50:06;20.63;;;10.20;;
56523;SDS011;42422;47.540;18.712;2024-02-16T01:54:58;18.35;;;8.48;;
56523;SDS011;42422;47.540;18.712;2024-02-16T01:59:49;23.50;;;9.90;;
56523;SDS011;42422;47.540;18.712;2024-02-16T02:04:40;23.90;;;10.15;;
56523;SDS011;42422;47.540;18.712;2024-02-16T02:09:31;20.17;;;10.82;;
56523;SDS011;42422;47.540;18.712;2024-02-16T02:11:58;25.75;;;9.90;;
56523;SDS011;42422;47.540;18.712;2024-02-16T02:16:51;23.50;;;11.15;;
56523;SDS011;42422;47.540;18.712;2024-02-16T02:21:41;19.70;;;10.25;;
56523;SDS011;42422;47.540;18.712;2024-02-16T02:24:06;25.75;;;10.70;;
56523;SDS011;42422;47.540;18.712;2024-02-16T02:28:57;20.02;;;9.43;;
56523;SDS011;42422;47.540;18.712;2024-02-16T02:33:47;19.83;;;9.18;;
56523;SDS011;42422;47.540;18.712;2024-02-16T02:38:38;24.58;;;9.82;;
56523;SDS011;42422;47.540;18.712;2024-02-16T02:43:28;23.20;;;11.10;;
56523;SDS011;42422;47.540;18.712;2024-02-16T02:48:19;18.85;;;8.38;;
56523;SDS011;42422;47.540;18.712;2024-02-16T02:53:09;19.08;;;10.45;;
56523;SDS011;42422;47.540;18.712;2024-02-16T02:57:59;21.20;;;9.63;;
56523;SDS011;42422;47.540;18.712;2024-02-16T03:02:50;22.85;;;9.77;;
56523;SDS011;42422;47.540;18.712;2024-02-16T03:07:41;24.40;;;10.15;;
56523;SDS011;42422;47.540;18.712;2024-02-16T03:12:34;17.02;;;8.73;;
56523;SDS011;42422;47.540;18.712;2024-02-16T03:17:24;23.65;;;9.57;;
56523;SDS011;42422;47.540;18.712;2024-02-16T03:22:15;19.17;;;9.73;;
56523;SDS011;42422;47.540;18.712;2024-02-16T03:27:05;20.02;;;9.07;;
56523;SDS011;42422;47.540;18.712;2024-02-16T03:31:55;21.13;;;8.93;;
56523;SDS011;42422;47.540;18.712;2024-02-16T03:36:46;18.67;;;9.27;;
56523;SDS011;42422;47.540;18.712;2024-02-16T03:41:36;16.90;;;9.02;;
56523;SDS011;42422;47.540;18.712;2024-02-16T03:46:26;19.70;;;9.32;;
56523;SDS011;42422;47.540;18.712;2024-02-16T03:51:17;22.90;;;10.07;;
56523;SDS011;42422;47.540;18.712;2024-02-16T03:56:09;20.05;;;10.88;;
56523;SDS011;42422;47.540;18.712;2024-02-16T04:01:00;23.23;;;9.43;;
56523;SDS011;42422;47.540;18.712;2024-02-16T04:05:50;20.77;;;8.50;;
56523;SDS011;42422;47.540;18.712;2024-02-16T04:10:40;18.00;;;9.48;;
56523;SDS011;42422;47.540;18.712;2024-02-16T04:15:31;23.83;;;9.73;;
56523;SDS011;42422;47.540;18.712;2024-02-16T04:20:21;22.85;;;10.00;;
56523;SDS011;42422;47.540;18.712;2024-02-16T04:25:11;26.20;;;9.95;;
56523;SDS011;42422;47.540;18.712;2024-02-16T04:30:02;23.92;;;10.00;;
56523;SDS011;42422;47.540;18.712;2024-02-16T04:34:52;16.88;;;8.45;;
56523;SDS011;42422;47.540;18.712;2024-02-16T04:39:44;15.73;;;7.97;;
56523;SDS011;42422;47.540;18.712;2024-02-16T04:44:36;19.52;;;8.45;;
56523;SDS011;42422;47.540;18.712;2024-02-16T04:47:03;23.75;;;10.45;;
56523;SDS011;42422;47.540;18.712;2024-02-16T04:51:54;18.15;;;9.45;;
56523;SDS011;42422;47.540;18.712;2024-02-16T04:56:44;16.48;;;8.18;;
56523;SDS011;42422;47.540;18.712;2024-02-16T05:01:34;21.33;;;9.35;;
56523;SDS011;42422;47.540;18.712;2024-02-16T05:06:26;18.75;;;8.93;;
56523;SDS011;42422;47.540;18.712;2024-02-16T05:11:17;22.58;;;9.38;;
56523;SDS011;42422;47.540;18.712;2024-02-16T05:16:11;23.95;;;9.48;;
56523;SDS011;42422;47.540;18.712;2024-02-16T05:18:36;14.05;;;8.55;;
56523;SDS011;42422;47.540;18.712;2024-02-16T05:21:03;20.33;;;9.77;;
56523;SDS011;42422;47.540;18.712;2024-02-16T05:25:53;19.27;;;8.90;;
56523;SDS011;42422;47.540;18.712;2024-02-16T05:30:44;16.45;;;8.43;;
56523;SDS011;42422;47.540;18.712;2024-02-16T05:35:35;18.95;;;8.80;;
56523;SDS011;42422;47.540;18.712;2024-02-16T05:38:04;21.50;;;9.02;;
56523;SDS011;42422;47.540;18.712;2024-02-16T05:40:35;19.13;;;9.98;;
56523;SDS011;42422;47.540;18.712;2024-02-16T05:43:10;21.90;;;10.02;;
56523;SDS011;42422;47.540;18.712;2024-02-16T05:48:00;19.00;;;8.88;;
56523;SDS011;42422;47.540;18.712;2024-02-16T05:52:51;19.92;;;8.77;;
56523;SDS011;42422;47.540;18.712;2024-02-16T05:57:43;18.27;;;10.90;;
56523;SDS011;42422;47.540;18.712;2024-02-16T06:02:35;20.90;;;9.05;;
56523;SDS011;42422;47.540;18.712;2024-02-16T06:07:25;19.02;;;8.68;;
56523;SDS011;42422;47.540;18.712;2024-02-16T06:12:16;16.58;;;8.10;;
56523;SDS011;42422;47.540;18.712;2024-02-16T06:17:06;19.20;;;9.25;;
56523;SDS011;42422;47.540;18.712;2024-02-16T06:19:33;20.92;;;10.13;;
56523;SDS011;42422;47.540;18.712;2024-02-16T06:24:24;14.25;;;7.82;;
56523;SDS011;42422;47.540;18.712;2024-02-16T06:29:14;17.60;;;9.52;;
56523;SDS011;42422;47.540;18.712;2024-02-16T06:34:05;24.05;;;9.80;;
56523;SDS011;42422;47.540;18.712;2024-02-16T06:38:55;21.63;;;10.98;;
56523;SDS011;42422;47.540;18.712;2024-02-16T06:43:45;23.73;;;9.98;;
56523;SDS011;42422;47.540;18.712;2024-02-16T06:48:36;20.65;;;9.80;;
56523;SDS011;42422;47.540;18.712;2024-02-16T06:53:26;24.50;;;10.85;;
56523;SDS011;42422;47.540;18.712;2024-02-16T06:58:16;20.85;;;10.32;;
56523;SDS011;42422;47.540;18.712;2024-02-16T07:03:07;22.85;;;10.85;;
56523;SDS011;42422;47.540;18.712;2024-02-16T07:07:57;30.15;;;10.23;;
56523;SDS011;42422;47.540;18.712;2024-02-16T07:12:49;25.33;;;11.43;;
56523;SDS011;42422;47.540;18.712;2024-02-16T07:17:39;23.58;;;11.82;;
56523;SDS011;42422;47.540;18.712;2024-02-16T07:22:30;21.92;;;11.05;;
56523;SDS011;42422;47.540;18.712;2024-02-16T07:24:56;26.42;;;12.10;;
56523;SDS011;42422;47.540;18.712;2024-02-16T07:29:46;22.52;;;9.90;;
56523;SDS011;42422;47.540;18.712;2024-02-16T07:34:37;19.02;;;10.82;;
56523;SDS011;42422;47.540;18.712;2024-02-16T07:39:28;20.60;;;10.73;;
56523;SDS011;42422;47.540;18.712;2024-02-16T07:44:19;21.95;;;11.00;;
56523;SDS011;42422;47.540;18.712;2024-02-16T07:49:10;24.63;;;10.40;;
56523;SDS011;42422;47.540;18.712;2024-02-16T07:54:02;28.33;;;12.23;;
56523;SDS011;42422;47.540;18.712;2024-02-16T07:56:28;21.00;;;11.73;;
56523;SDS011;42422;47.540;18.712;2024-02-16T08:01:18;22.80;;;10.98;;
56523;SDS011;42422;47.540;18.712;2024-02-16T08:06:09;19.44;;;9.86;;
56523;SDS011;42422;47.540;18.712;2024-02-16T08:10:59;22.95;;;9.85;;
56523;SDS011;42422;47.540;18.712;2024-02-16T08:13:25;24.13;;;12.43;;
56523;SDS011;42422;47.540;18.712;2024-02-16T08:18:16;20.75;;;11.50;;
56523;SDS011;42422;47.540;18.712;2024-02-16T08:23:08;19.88;;;10.50;;
56523;SDS011;42422;47.540;18.712;2024-02-16T08:27:58;21.42;;;10.77;;
56523;SDS011;42422;47.540;18.712;2024-02-16T08:32:49;22.27;;;10.48;;
56523;SDS011;42422;47.540;18.712;2024-02-16T08:37:42;22.92;;;10.38;;
56523;SDS011;42422;47.540;18.712;2024-02-16T08:42:32;20.77;;;11.40;;
56523;SDS011;42422;47.540;18.712;2024-02-16T08:47:25;21.02;;;11.00;;
56523;SDS011;42422;47.540;18.712;2024-02-16T08:52:15;21.34;;;10.42;;
56523;SDS011;42422;47.540;18.712;2024-02-16T08:57:06;23.92;;;10.10;;
56523;SDS011;42422;47.540;18.712;2024-02-16T09:01:56;19.52;;;10.23;;
56523;SDS011;42422;47.540;18.712;2024-02-16T09:04:23;19.73;;;10.40;;
56523;SDS011;42422;47.540;18.712;2024-02-16T09:09:15;21.02;;;11.05;;
56523;SDS011;42422;47.540;18.712;2024-02-16T09:14:06;23.33;;;11.52;;
56523;SDS011;42422;47.540;18.712;2024-02-16T09:18:57;20.13;;;10.40;;
56523;SDS011;42422;47.540;18.712;2024-02-16T09:21:23;22.95;;;11.00;;
56523;SDS011;42422;47.540;18.712;2024-02-16T09:23:52;15.90;;;10.02;;
56523;SDS011;42422;47.540;18.712;2024-02-16T09:28:43;27.08;;;10.38;;
56523;SDS011;42422;47.540;18.712;2024-02-16T09:33:34;22.08;;;9.85;;
56523;SDS011;42422;47.540;18.712;2024-02-16T09:36:00;18.63;;;10.55;;
56523;SDS011;42422;47.540;18.712;2024-02-16T09:40:50;16.40;;;7.28;;
56523;SDS011;42422;47.540;18.712;2024-02-16T09:45:40;19.02;;;7.75;;
56523;SDS011;42422;47.540;18.712;2024-02-16T09:50:31;16.15;;;6.43;;
56523;SDS011;42422;47.540;18.712;2024-02-16T09:55:21;13.25;;;5.78;;
56523;SDS011;42422;47.540;18.712;2024-02-16T10:00:12;11.10;;;4.80;;
56523;SDS011;42422;47.540;18.712;2024-02-16T10:05:09;9.77;;;5.40;;
56523;SDS011;42422;47.540;18.712;2024-02-16T10:07:34;10.75;;;5.22;;
56523;SDS011;42422;47.540;18.712;2024-02-16T10:12:24;13.50;;;5.55;;
56523;SDS011;42422;47.540;18.712;2024-02-16T10:17:16;10.35;;;5.40;;
56523;SDS011;42422;47.540;18.712;2024-02-16T10:19:41;13.75;;;6.20;;
56523;SDS011;42422;47.540;18.712;2024-02-16T10:24:32;12.07;;;5.28;;
56523;SDS011;42422;47.540;18.712;2024-02-16T10:29:22;14.30;;;5.07;;
56523;SDS011;42422;47.540;18.712;2024-02-16T10:31:49;12.07;;;6.70;;
56523;SDS011;42422;47.540;18.712;2024-02-16T10:34:15;12.48;;;6.05;;
56523;SDS011;42422;47.540;18.712;2024-02-16T10:36:41;10.40;;;5.72;;
56523;SDS011;42422;47.540;18.712;2024-02-16T10:41:40;9.10;;;5.43;;
56523;SDS011;42422;47.540;18.712;2024-02-16T10:44:06;12.25;;;6.25;;
56523;SDS011;42422;47.540;18.712;2024-02-16T10:48:56;15.38;;;6.18;;
56523;SDS011;42422;47.540;18.712;2024-02-16T10:53:47;13.73;;;6.63;;
56523;SDS011;42422;47.540;18.712;2024-02-16T10:56:13;13.30;;;6.35;;
56523;SDS011;42422;47.540;18.712;2024-02-16T11:01:09;13.63;;;6.43;;
56523;SDS011;42422;47.540;18.712;2024-02-16T11:03:37;11.25;;;6.28;;
56523;SDS011;42422;47.540;18.712;2024-02-16T11:06:11;11.93;;;6.28;;
56523;SDS011;42422;47.540;18.712;2024-02-16T11:08:37;12.43;;;6.47;;
56523;SDS011;42422;47.540;18.712;2024-02-16T11:11:03;11.98;;;5.78;;
56523;SDS011;42422;47.540;18.712;2024-02-16T11:15:57;11.60;;;5.90;;
56523;SDS011;42422;47.540;18.712;2024-02-16T11:18:24;12.02;;;6.18;;
56523;SDS011;42422;47.540;18.712;2024-02-16T11:20:50;11.43;;;6.85;;
56523;SDS011;42422;47.540;18.712;2024-02-16T11:23:16;13.00;;;5.38;;
56523;SDS011;42422;47.540;18.712;2024-02-16T11:28:07;12.85;;;5.93;;
56523;SDS011;42422;47.540;18.712;2024-02-16T11:30:33;9.32;;;5.15;;
56523;SDS011;42422;47.540;18.712;2024-02-16T11:32:59;10.43;;;5.57;;
56523;SDS011;42422;47.540;18.712;2024-02-16T11:35:25;11.38;;;5.10;;
56523;SDS011;42422;47.540;18.712;2024-02-16T11:40:16;8.02;;;5.22;;
56523;SDS011;42422;47.540;18.712;2024-02-16T11:45:10;10.52;;;5.82;;
56523;SDS011;42422;47.540;18.712;2024-02-16T11:47:35;10.55;;;5.07;;
56523;SDS011;42422;47.540;18.712;2024-02-16T11:50:03;11.68;;;5.22;;
56523;SDS011;42422;47.540;18.712;2024-02-16T11:52:29;9.98;;;4.63;;
56523;SDS011;42422;47.540;18.712;2024-02-16T11:54:54;7.93;;;4.40;;
56523;SDS011;42422;47.540;18.712;2024-02-16T11:59:45;8.52;;;5.25;;
56523;SDS011;42422;47.540;18.712;2024-02-16T12:02:16;9.05;;;4.55;;
56523;SDS011;42422;47.540;18.712;2024-02-16T12:04:41;9.40;;;5.15;;
56523;SDS011;42422;47.540;18.712;2024-02-16T12:09:32;8.32;;;4.28;;
56523;SDS011;42422;47.540;18.712;2024-02-16T12:11:59;10.77;;;4.57;;
56523;SDS011;42422;47.540;18.712;2024-02-16T12:16:51;9.68;;;4.45;;
56523;SDS011;42422;47.540;18.712;2024-02-16T12:21:42;8.13;;;4.50;;
56523;SDS011;42422;47.540;18.712;2024-02-16T12:26:32;6.85;;;3.78;;
56523;SDS011;42422;47.540;18.712;2024-02-16T12:31:23;9.73;;;5.53;;
56523;SDS011;42422;47.540;18.712;2024-02-16T12:33:48;13.13;;;5.03;;
56523;SDS011;42422;47.540;18.712;2024-02-16T12:38:39;9.38;;;4.47;;
56523;SDS011;42422;47.540;18.712;2024-02-16T12:41:05;8.90;;;4.95;;
56523;SDS011;42422;47.540;18.712;2024-02-16T12:45:55;8.73;;;4.10;;
56523;SDS011;42422;47.540;18.712;2024-02-16T12:48:21;8.75;;;4.55;;
56523;SDS011;42422;47.540;18.712;2024-02-16T12:53:12;7.65;;;4.35;;
56523;SDS011;42422;47.540;18.712;2024-02-16T12:58:02;10.02;;;5.03;;
56523;SDS011;42422;47.540;18.712;2024-02-16T13:02:53;9.30;;;5.20;;
56523;SDS011;42422;47.540;18.712;2024-02-16T13:07:44;8.38;;;4.57;;
56523;SDS011;42422;47.540;18.712;2024-02-16T13:12:34;7.40;;;3.55;;
56523;SDS011;42422;47.540;18.712;2024-02-16T13:15:00;5.70;;;3.80;;
56523;SDS011;42422;47.540;18.712;2024-02-16T13:17:27;7.00;;;4.32;;
56523;SDS011;42422;47.540;18.712;2024-02-16T13:19:52;7.85;;;4.38;;
56523;SDS011;42422;47.540;18.712;2024-02-16T13:24:42;12.02;;;5.05;;
56523;SDS011;42422;47.540;18.712;2024-02-16T13:27:07;8.23;;;4.60;;
56523;SDS011;42422;47.540;18.712;2024-02-16T13:29:33;7.55;;;4.75;;
56523;SDS011;42422;47.540;18.712;2024-02-16T13:31:59;5.93;;;4.00;;
56523;SDS011;42422;47.540;18.712;2024-02-16T13:34:24;9.90;;;4.85;;
56523;SDS011;42422;47.540;18.712;2024-02-16T13:36:51;11.07;;;5.22;;
56523;SDS011;42422;47.540;18.712;2024-02-16T13:39:16;12.07;;;4.40;;
56523;SDS011;42422;47.540;18.712;2024-02-16T13:46:34;8.32;;;4.55;;
56523;SDS011;42422;47.540;18.712;2024-02-16T13:48:59;8.38;;;4.35;;
56523;SDS011;42422;47.540;18.712;2024-02-16T13:53:50;7.40;;;4.13;;
56523;SDS011;42422;47.540;18.712;2024-02-16T13:56:16;8.50;;;4.15;;
56523;SDS011;42422;47.540;18.712;2024-02-16T13:58:41;10.07;;;4.40;;
56523;SDS011;42422;47.540;18.712;2024-02-16T14:01:07;24.73;;;12.45;;
56523;SDS011;42422;47.540;18.712;2024-02-16T14:03:32;12.43;;;9.32;;
56523;SDS011;42422;47.540;18.712;2024-02-16T14:08:23;10.00;;;5.43;;
56523;SDS011;42422;47.540;18.712;2024-02-16T14:13:14;8.23;;;4.15;;
56523;SDS011;42422;47.540;18.712;2024-02-16T14:15:41;10.52;;;5.13;;
56523;SDS011;42422;47.540;18.712;2024-02-16T14:18:07;11.15;;;5.35;;
56523;SDS011;42422;47.540;18.712;2024-02-16T14:20:32;7.97;;;4.40;;
56523;SDS011;42422;47.540;18.712;2024-02-16T14:25:22;12.20;;;4.35;;
56523;SDS011;42422;47.540;18.712;2024-02-16T14:27:49;8.10;;;4.82;;
56523;SDS011;42422;47.540;18.712;2024-02-16T14:32:39;12.00;;;5.32;;
56523;SDS011;42422;47.540;18.712;2024-02-16T14:35:06;8.90;;;5.20;;
56523;SDS011;42422;47.540;18.712;2024-02-16T14:39:57;9.23;;;4.97;;
56523;SDS011;42422;47.540;18.712;2024-02-16T14:42:24;9.82;;;4.18;;
56523;SDS011;42422;47.540;18.712;2024-02-16T14:44:49;9.27;;;3.63;;
56523;SDS011;42422;47.540;18.712;2024-02-16T14:49:39;8.40;;;3.97;;
56523;SDS011;42422;47.540;18.712;2024-02-16T14:52:05;7.55;;;4.53;;
56523;SDS011;42422;47.540;18.712;2024-02-16T14:56:56;9.20;;;4.90;;
56523;SDS011;42422;47.540;18.712;2024-02-16T15:01:46;7.15;;;3.88;;
56523;SDS011;42422;47.540;18.712;2024-02-16T15:06:36;10.75;;;4.78;;
56523;SDS011;42422;47.540;18.712;2024-02-16T15:11:30;8.90;;;4.97;;
56523;SDS011;42422;47.540;18.712;2024-02-16T15:16:20;7.53;;;4.88;;
56523;SDS011;42422;47.540;18.712;2024-02-16T15:18:46;12.50;;;4.35;;
56523;SDS011;42422;47.540;18.712;2024-02-16T15:23:36;8.13;;;4.88;;
56523;SDS011;42422;47.540;18.712;2024-02-16T15:28:30;6.25;;;3.67;;
56523;SDS011;42422;47.540;18.712;2024-02-16T15:33:20;7.43;;;4.72;;
56523;SDS011;42422;47.540;18.712;2024-02-16T15:35:45;8.80;;;4.45;;
56523;SDS011;42422;47.540;18.712;2024-02-16T15:40:35;9.68;;;5.18;;
56523;SDS011;42422;47.540;18.712;2024-02-16T15:45:26;7.50;;;4.63;;
56523;SDS011;42422;47.540;18.712;2024-02-16T15:47:51;8.50;;;4.70;;
56523;SDS011;42422;47.540;18.712;2024-02-16T15:50:17;8.75;;;4.70;;
56523;SDS011;42422;47.540;18.712;2024-02-16T15:55:07;11.45;;;5.80;;
56523;SDS011;42422;47.540;18.712;2024-02-16T15:59:58;16.92;;;8.20;;
56523;SDS011;42422;47.540;18.712;2024-02-16T16:04:48;11.85;;;5.38;;
56523;SDS011;42422;47.540;18.712;2024-02-16T16:09:39;10.80;;;5.53;;
56523;SDS011;42422;47.540;18.712;2024-02-16T16:14:30;13.27;;;6.00;;
56523;SDS011;42422;47.540;18.712;2024-02-16T16:19:20;10.15;;;4.95;;
56523;SDS011;42422;47.540;18.712;2024-02-16T16:21:46;9.93;;;5.72;;
56523;SDS011;42422;47.540;18.712;2024-02-16T16:26:38;9.10;;;5.15;;
56523;SDS011;42422;47.540;18.712;2024-02-16T16:31:28;12.00;;;5.35;;
56523;SDS011;42422;47.540;18.712;2024-02-16T16:36:19;13.80;;;6.25;;
56523;SDS011;42422;47.540;18.712;2024-02-16T16:41:11;25.33;;;13.35;;
56523;SDS011;42422;47.540;18.712;2024-02-16T16:46:02;21.95;;;9.80;;
56523;SDS011;42422;47.540;18.712;2024-02-16T16:50:52;12.93;;;6.47;;
56523;SDS011;42422;47.540;18.712;2024-02-16T16:55:42;12.35;;;5.72;;
56523;SDS011;42422;47.540;18.712;2024-02-16T17:00:33;24.13;;;11.18;;
56523;SDS011;42422;47.540;18.712;2024-02-16T17:05:24;14.57;;;9.18;;
56523;SDS011;42422;47.540;18.712;2024-02-16T17:10:15;15.54;;;6.60;;
56523;SDS011;42422;47.540;18.712;2024-02-16T17:15:06;12.05;;;7.30;;
56523;SDS011;42422;47.540;18.712;2024-02-16T17:19:58;11.10;;;6.13;;
56523;SDS011;42422;47.540;18.712;2024-02-16T17:24:48;10.68;;;6.40;;
56523;SDS011;42422;47.540;18.712;2024-02-16T17:29:41;13.25;;;6.50;;
56523;SDS011;42422;47.540;18.712;2024-02-16T17:32:07;10.82;;;5.30;;
56523;SDS011;42422;47.540;18.712;2024-02-16T17:34:34;13.00;;;5.95;;
56523;SDS011;42422;47.540;18.712;2024-02-16T17:39:24;10.23;;;5.88;;
56523;SDS011;42422;47.540;18.712;2024-02-16T17:41:51;11.75;;;6.18;;
56523;SDS011;42422;47.540;18.712;2024-02-16T17:46:41;10.18;;;5.07;;
56523;SDS011;42422;47.540;18.712;2024-02-16T17:51:32;10.60;;;6.03;;
56523;SDS011;42422;47.540;18.712;2024-02-16T17:56:23;10.38;;;5.45;;
56523;SDS011;42422;47.540;18.712;2024-02-16T18:01:13;10.52;;;4.97;;
56523;SDS011;42422;47.540;18.712;2024-02-16T18:06:04;11.82;;;5.72;;
56523;SDS011;42422;47.540;18.712;2024-02-16T18:10:54;10.05;;;5.32;;
56523;SDS011;42422;47.540;18.712;2024-02-16T18:15:50;13.45;;;5.35;;
56523;SDS011;42422;47.540;18.712;2024-02-16T18:18:16;10.23;;;5.47;;
56523;SDS011;42422;47.540;18.712;2024-02-16T18:23:06;14.38;;;7.28;;
56523;SDS011;42422;47.540;18.712;2024-02-16T18:27:57;11.60;;;6.38;;
56523;SDS011;42422;47.540;18.712;2024-02-16T18:32:47;10.13;;;5.32;;
56523;SDS011;42422;47.540;18.712;2024-02-16T18:37:38;10.90;;;6.03;;
56523;SDS011;42422;47.540;18.712;2024-02-16T18:42:29;9.30;;;5.20;;
56523;SDS011;42422;47.540;18.712;2024-02-16T18:47:20;11.20;;;6.05;;
56523;SDS011;42422;47.540;18.712;2024-02-16T18:52:13;12.02;;;6.22;;
56523;SDS011;42422;47.540;18.712;2024-02-16T18:54:40;16.00;;;7.00;;
56523;SDS011;42422;47.540;18.712;2024-02-16T18:59:31;14.75;;;6.85;;
56523;SDS011;42422;47.540;18.712;2024-02-16T19:04:26;11.15;;;7.30;;
56523;SDS011;42422;47.540;18.712;2024-02-16T19:09:16;19.85;;;8.15;;
56523;SDS011;42422;47.540;18.712;2024-02-16T19:11:41;19.33;;;9.88;;
56523;SDS011;42422;47.540;18.712;2024-02-16T19:16:32;17.38;;;8.85;;
56523;SDS011;42422;47.540;18.712;2024-02-16T19:21:22;15.07;;;7.30;;
56523;SDS011;42422;47.540;18.712;2024-02-16T19:26:12;23.35;;;10.05;;
56523;SDS011;42422;47.540;18.712;2024-02-16T19:31:04;16.02;;;7.95;;
56523;SDS011;42422;47.540;18.712;2024-02-16T19:35:55;17.33;;;8.15;;
56523;SDS011;42422;47.540;18.712;2024-02-16T19:40:45;17.65;;;8.32;;
56523;SDS011;42422;47.540;18.712;2024-02-16T19:45:38;15.80;;;8.45;;
56523;SDS011;42422;47.540;18.712;2024-02-16T19:50:29;18.88;;;8.73;;
56523;SDS011;42422;47.540;18.712;2024-02-16T19:55:19;15.05;;;9.15;;
56523;SDS011;42422;47.540;18.712;2024-02-16T20:00:10;13.48;;;6.90;;
56523;SDS011;42422;47.540;18.712;2024-02-16T20:05:01;15.75;;;7.47;;
56523;SDS011;42422;47.540;18.712;2024-02-16T20:09:53;14.63;;;8.25;;
56523;SDS011;42422;47.540;18.712;2024-02-16T20:14:44;21.33;;;9.38;;
56523;SDS011;42422;47.540;18.712;2024-02-16T20:19:35;19.30;;;8.57;;
56523;SDS011;42422;47.540;18.712;2024-02-16T20:24:26;18.38;;;8.88;;
56523;SDS011;42422;47.540;18.712;2024-02-16T20:29:19;20.20;;;9.27;;
56523;SDS011;42422;47.540;18.712;2024-02-16T20:34:10;16.42;;;9.32;;
56523;SDS011;42422;47.540;18.712;2024-02-16T20:36:37;18.73;;;8.13;;
56523;SDS011;42422;47.540;18.712;2024-02-16T20:41:28;16.88;;;8.63;;
56523;SDS011;42422;47.540;18.712;2024-02-16T20:43:53;16.42;;;9.23;;
56523;SDS011;42422;47.540;18.712;2024-02-16T20:48:44;14.32;;;7.85;;
56523;SDS011;42422;47.540;18.712;2024-02-16T20:53:37;14.90;;;8.50;;
56523;SDS011;42422;47.540;18.712;2024-02-16T20:58:29;15.23;;;7.25;;
56523;SDS011;42422;47.540;18.712;2024-02-16T21:00:59;15.15;;;7.63;;
56523;SDS011;42422;47.540;18.712;2024-02-16T21:05:50;17.70;;;9.07;;
56523;SDS011;42422;47.540;18.712;2024-02-16T21:08:16;22.90;;;8.70;;
56523;SDS011;42422;47.540;18.712;2024-02-16T21:13:06;18.10;;;8.82;;
56523;SDS011;42422;47.540;18.712;2024-02-16T21:17:57;18.98;;;8.32;;
56523;SDS011;42422;47.540;18.712;2024-02-16T21:22:47;20.77;;;8.13;;
56523;SDS011;42422;47.540;18.712;2024-02-16T21:25:12;22.05;;;9.70;;
56523;SDS011;42422;47.540;18.712;2024-02-16T21:30:03;24.02;;;9.98;;
56523;SDS011;42422;47.540;18.712;2024-02-16T21:34:54;38.75;;;14.85;;
56523;SDS011;42422;47.540;18.712;2024-02-16T21:39:45;23.15;;;10.88;;
56523;SDS011;42422;47.540;18.712;2024-02-16T21:44:36;21.80;;;10.50;;
56523;SDS011;42422;47.540;18.712;2024-02-16T21:49:29;17.92;;;8.38;;
56523;SDS011;42422;47.540;18.712;2024-02-16T21:54:19;16.75;;;8.32;;
56523;SDS011;42422;47.540;18.712;2024-02-16T21:59:10;21.58;;;9.88;;
56523;SDS011;42422;47.540;18.712;2024-02-16T22:04:01;16.13;;;8.65;;
56523;SDS011;42422;47.540;18.712;2024-02-16T22:06:27;23.88;;;8.88;;
56523;SDS011;42422;47.540;18.712;2024-02-16T22:08:54;17.30;;;8.00;;
56523;SDS011;42422;47.540;18.712;2024-02-16T22:11:21;21.65;;;9.35;;
56523;SDS011;42422;47.540;18.712;2024-02-16T22:16:12;16.95;;;8.23;;
56523;SDS011;42422;47.540;18.712;2024-02-16T22:21:04;15.20;;;9.05;;
56523;SDS011;42422;47.540;18.712;2024-02-16T22:25:55;19.60;;;8.70;;
56523;SDS011;42422;47.540;18.712;2024-02-16T22:28:20;13.88;;;8.18;;
56523;SDS011;42422;47.540;18.712;2024-02-16T22:33:11;17.12;;;8.74;;
56523;SDS011;42422;47.540;18.712;2024-02-16T22:38:01;15.96;;;8.68;;
56523;SDS011;42422;47.540;18.712;2024-02-16T22:42:51;22.17;;;8.35;;
56523;SDS011;42422;47.540;18.712;2024-02-16T22:47:42;12.85;;;7.90;;
56523;SDS011;42422;47.540;18.712;2024-02-16T22:52:32;15.85;;;7.45;;
56523;SDS011;42422;47.540;18.712;2024-02-16T22:57:22;17.52;;;7.57;;
56523;SDS011;42422;47.540;18.712;2024-02-16T23:02:13;16.30;;;8.55;;
56523;SDS011;42422;47.540;18.712;2024-02-16T23:07:04;15.40;;;7.97;;
56523;SDS011;42422;47.540;18.712;2024-02-16T23:11:55;14.27;;;7.25;;
56523;SDS011;42422;47.540;18.712;2024-02-16T23:16:46;15.13;;;8.15;;
56523;SDS011;42422;47.540;18.712;2024-02-16T23:21:36;12.18;;;6.55;;
56523;SDS011;42422;47.540;18.712;2024-02-16T23:26:26;16.65;;;7.88;;
56523;SDS011;42422;47.540;18.712;2024-02-16T23:31:16;15.13;;;8.00;;
56523;SDS011;42422;47.540;18.712;2024-02-16T23:33:43;22.75;;;8.50;;
56523;SDS011;42422;47.540;18.712;2024-02-16T23:38:33;19.80;;;8.65;;
56523;SDS011;42422;47.540;18.712;2024-02-16T23:43:25;19.50;;;7.72;;
56523;SDS011;42422;47.540;18.712;2024-02-16T23:48:15;14.27;;;7.15;;
56523;SDS011;42422;47.540;18.712;2024-02-16T23:53:05;16.80;;;8.16;;
56523;SDS011;42422;47.540;18.712;2024-02-16T23:57:56;16.84;;;7.64;;
